Time;durP1;ratioP1;P1;durP2;ratioP2;P2;SDS_P1;SDS_P2;PMS_P1;PMS_P2;Temp;Humidity;BMP_temperature;BMP_pressure;BME280_temperature;BME280_humidity;BME280_pressure;Samples;Min_cycle;Max_cycle;Signal;HPM_P1;HPM_P2
2021/07/14 00:01:34;;;;;;;33.60;19.90;;;19.40;99.90;;;;;;5004894;28;20262;-72
2021/07/14 00:04:01;;;;;;;36.78;18.70;;;19.50;99.90;;;;;;5007936;28;20204;-71
2021/07/14 00:06:29;;;;;;;30.48;18.52;;;19.50;99.90;;;;;;5009968;28;20212;-71
2021/07/14 00:08:56;;;;;;;34.10;19.15;;;19.50;99.90;;;;;;5007017;28;20610;-71
2021/07/14 00:11:23;;;;;;;34.08;18.70;;;19.50;99.90;;;;;;5011698;28;20196;-71
2021/07/14 00:14:03;;;;;;;37.40;19.10;;;19.50;99.90;;;;;;5010706;28;20208;-73
2021/07/14 00:22:10;;;;;;;38.55;20.65;;;19.50;99.90;;;;;;4997774;28;20636;-70
2021/07/14 00:24:38;;;;;;;38.40;21.00;;;19.40;99.90;;;;;;4993483;28;20742;-72
2021/07/14 00:27:06;;;;;;;44.00;22.70;;;19.40;99.90;;;;;;5006551;28;20271;-71
2021/07/14 00:29:36;;;;;;;42.22;23.60;;;19.40;99.90;;;;;;5012248;28;20205;-70
2021/07/14 00:32:03;;;;;;;47.72;24.17;;;19.40;99.90;;;;;;4998503;28;20236;-73
2021/07/14 00:34:30;;;;;;;46.15;23.15;;;19.40;99.90;;;;;;5009462;28;20263;-72
2021/07/14 00:36:57;;;;;;;53.47;23.70;;;19.40;99.90;;;;;;5010891;28;20211;-74
2021/07/14 00:39:25;;;;;;;47.13;24.00;;;19.40;99.90;;;;;;5011474;28;20259;-73
2021/07/14 00:41:53;;;;;;;45.75;24.63;;;19.40;99.90;;;;;;4995329;28;20249;-74
2021/07/14 00:44:19;;;;;;;44.63;23.40;;;19.40;99.90;;;;;;5015112;28;20211;-71
2021/07/14 00:46:48;;;;;;;50.13;23.02;;;19.40;99.90;;;;;;5015054;28;20231;-71
2021/07/14 00:49:15;;;;;;;48.97;23.08;;;19.40;99.90;;;;;;4995131;28;20303;-74
2021/07/14 00:51:42;;;;;;;44.45;24.38;;;19.40;99.90;;;;;;5014823;28;20208;-73
2021/07/14 00:54:09;;;;;;;45.00;22.77;;;19.40;99.90;;;;;;5010197;28;20204;-72
2021/07/14 00:56:38;;;;;;;43.95;24.00;;;19.40;99.90;;;;;;5011972;28;20602;-74
2021/07/14 00:59:05;;;;;;;46.95;23.73;;;19.40;99.90;;;;;;5014712;28;20212;-73
2021/07/14 01:01:33;;;;;;;49.75;24.45;;;19.40;99.90;;;;;;5012988;28;20610;-73
2021/07/14 01:04:09;;;;;;;45.90;24.20;;;19.40;99.90;;;;;;5015373;28;20838;-73
2021/07/14 01:06:47;;;;;;;39.63;23.00;;;19.40;99.90;;;;;;5015755;28;20215;-72
2021/07/14 01:09:16;;;;;;;45.22;21.42;;;19.40;99.90;;;;;;5014660;28;20203;-71
2021/07/14 01:11:46;;;;;;;38.15;20.75;;;19.40;99.90;;;;;;5014923;28;20209;-71
2021/07/14 01:14:21;;;;;;;39.03;20.88;;;19.40;99.90;;;;;;5005467;28;20201;-69
2021/07/14 01:16:52;;;;;;;45.58;22.75;;;19.40;99.90;;;;;;5016334;28;20212;-72
2021/07/14 01:19:34;;;;;;;31.55;19.95;;;19.40;99.90;;;;;;5013275;28;20205;-70
2021/07/14 01:22:13;;;;;;;36.33;20.83;;;19.40;99.90;;;;;;5013233;28;20579;-72
2021/07/14 01:24:49;;;;;;;45.65;22.90;;;19.40;99.90;;;;;;5014277;28;20205;-72
2021/07/14 01:27:19;;;;;;;39.60;21.83;;;19.40;99.90;;;;;;5010483;28;20209;-72
2021/07/14 01:29:49;;;;;;;35.45;20.83;;;19.30;99.90;;;;;;5013221;28;20207;-72
2021/07/14 01:32:17;;;;;;;31.25;20.27;;;19.40;99.90;;;;;;5011892;28;20239;-71
2021/07/14 01:34:47;;;;;;;32.63;20.35;;;19.40;99.90;;;;;;5012323;28;20692;-72
2021/07/14 01:37:17;;;;;;;30.92;19.45;;;19.30;99.90;;;;;;4994050;28;20526;-70
2021/07/14 01:39:45;;;;;;;31.58;20.67;;;19.40;99.90;;;;;;5012100;28;20212;-71
2021/07/14 01:42:14;;;;;;;30.05;19.65;;;19.30;99.90;;;;;;5009562;28;20212;-71
2021/07/14 01:44:45;;;;;;;29.25;17.73;;;19.30;99.90;;;;;;5012012;28;20208;-71
2021/07/14 01:47:12;;;;;;;29.00;17.77;;;19.30;99.90;;;;;;5010199;28;22396;-70
2021/07/14 01:49:41;;;;;;;24.08;15.73;;;19.30;99.90;;;;;;5008431;28;20671;-72
2021/07/14 01:52:20;;;;;;;21.05;14.70;;;19.30;99.90;;;;;;5002042;28;20204;-71
2021/07/14 01:54:53;;;;;;;21.77;15.18;;;19.30;99.90;;;;;;5011491;28;20208;-70
2021/07/14 01:57:22;;;;;;;23.45;14.85;;;19.30;99.90;;;;;;5009472;28;20209;-72
2021/07/14 01:59:52;;;;;;;24.25;14.50;;;19.20;99.90;;;;;;5014541;28;20255;-73
2021/07/14 02:02:22;;;;;;;25.00;16.30;;;19.20;99.90;;;;;;4992159;28;20270;-72
2021/07/14 02:04:50;;;;;;;27.10;16.98;;;19.30;99.90;;;;;;5006318;28;20204;-71
2021/07/14 02:07:24;;;;;;;26.10;16.73;;;19.30;99.90;;;;;;5009082;28;20242;-71
2021/07/14 02:09:51;;;;;;;26.13;18.05;;;19.30;99.90;;;;;;5001516;28;20590;-72
2021/07/14 02:12:21;;;;;;;28.83;19.10;;;19.30;99.90;;;;;;5011454;28;20574;-72
2021/07/14 02:14:52;;;;;;;30.48;19.77;;;19.30;99.90;;;;;;5014437;28;20255;-72
2021/07/14 02:17:22;;;;;;;29.67;20.20;;;19.30;99.90;;;;;;5009087;28;20217;-73
2021/07/14 02:19:53;;;;;;;31.13;19.45;;;19.30;99.90;;;;;;5012589;28;20247;-72
2021/07/14 02:22:20;;;;;;;34.28;20.23;;;19.30;99.90;;;;;;4999831;28;20209;-73
2021/07/14 02:24:46;;;;;;;29.10;19.10;;;19.30;99.90;;;;;;5009500;28;21775;-71
2021/07/14 02:27:15;;;;;;;31.08;19.83;;;19.30;99.90;;;;;;5006448;28;20215;-71
2021/07/14 02:29:42;;;;;;;29.20;19.40;;;19.30;99.90;;;;;;5008828;28;20200;-73
2021/07/14 02:32:16;;;;;;;32.25;20.02;;;19.30;99.90;;;;;;5012324;28;20236;-73
2021/07/14 02:34:44;;;;;;;30.75;20.10;;;19.30;99.90;;;;;;5013594;28;20212;-72
2021/07/14 02:37:13;;;;;;;32.80;21.88;;;19.20;99.90;;;;;;5001221;28;20582;-74
2021/07/14 02:39:43;;;;;;;38.35;22.58;;;19.30;99.90;;;;;;5010331;28;20725;-71
2021/07/14 02:42:13;;;;;;;35.67;22.92;;;19.20;99.90;;;;;;5009138;28;20677;-74
2021/07/14 02:44:43;;;;;;;37.03;21.50;;;19.20;99.90;;;;;;5011833;28;20274;-70
2021/07/14 02:47:13;;;;;;;30.30;19.67;;;19.20;99.90;;;;;;5008591;28;20698;-70
2021/07/14 02:49:41;;;;;;;28.15;18.02;;;19.20;99.90;;;;;;5010005;28;20265;-70
2021/07/14 02:52:11;;;;;;;30.20;19.75;;;19.20;99.90;;;;;;5010914;28;20196;-72
2021/07/14 02:54:41;;;;;;;31.45;19.80;;;19.20;99.90;;;;;;4993010;28;20208;-71
2021/07/14 02:57:11;;;;;;;31.77;19.35;;;19.20;99.90;;;;;;5008682;28;20212;-74
2021/07/14 02:59:40;;;;;;;28.20;19.42;;;19.10;99.90;;;;;;5012918;28;20200;-71
2021/07/14 03:02:08;;;;;;;35.42;19.77;;;19.20;99.90;;;;;;5012310;28;20211;-72
2021/07/14 03:04:40;;;;;;;31.73;19.88;;;19.20;99.90;;;;;;5013632;28;20198;-72
2021/07/14 03:07:08;;;;;;;30.65;18.17;;;19.20;99.90;;;;;;5009224;28;20220;-72
2021/07/14 03:09:38;;;;;;;30.13;18.90;;;19.20;99.90;;;;;;5012342;28;20205;-71
2021/07/14 03:12:07;;;;;;;36.20;19.50;;;19.20;99.90;;;;;;5009059;28;20286;-70
2021/07/14 03:14:36;;;;;;;28.90;18.85;;;19.20;99.90;;;;;;5012202;28;20209;-72
2021/07/14 03:17:07;;;;;;;33.53;20.55;;;19.10;99.90;;;;;;5012042;28;20279;-71
2021/07/14 03:19:37;;;;;;;34.13;20.08;;;19.10;99.90;;;;;;5012161;28;20849;-70
2021/07/14 03:22:04;;;;;;;35.88;21.50;;;19.10;99.90;;;;;;5010241;28;20196;-70
2021/07/14 03:24:32;;;;;;;36.70;23.05;;;19.20;99.90;;;;;;5011772;28;20208;-71
2021/07/14 03:26:59;;;;;;;36.35;22.08;;;19.10;99.90;;;;;;5009007;28;20217;-73
2021/07/14 03:29:27;;;;;;;42.90;23.27;;;19.10;99.90;;;;;;4993679;28;20216;-71
2021/07/14 03:31:54;;;;;;;37.80;24.17;;;19.10;99.90;;;;;;4993136;28;20243;-73
2021/07/14 03:34:21;;;;;;;37.58;23.80;;;19.10;99.90;;;;;;5012324;28;20274;-74
2021/07/14 03:36:51;;;;;;;37.47;22.38;;;19.10;99.90;;;;;;5010321;28;20661;-70
2021/07/14 03:39:18;;;;;;;41.17;22.48;;;19.10;99.90;;;;;;5010934;28;20204;-72
2021/07/14 03:41:47;;;;;;;33.33;21.25;;;19.10;99.90;;;;;;5011113;28;21024;-71
2021/07/14 03:44:16;;;;;;;37.72;23.08;;;19.10;99.90;;;;;;5010384;28;20211;-72
2021/07/14 03:46:44;;;;;;;38.40;22.40;;;19.10;99.90;;;;;;5010046;28;20224;-73
2021/07/14 03:49:13;;;;;;;36.20;22.35;;;19.10;99.90;;;;;;5010008;28;20224;-73
2021/07/14 03:51:41;;;;;;;34.55;20.35;;;19.10;99.90;;;;;;5007947;28;20295;-70
2021/07/14 03:54:11;;;;;;;34.50;20.25;;;19.10;99.90;;;;;;5006262;28;20216;-70
2021/07/14 03:56:38;;;;;;;34.17;20.85;;;19.10;99.90;;;;;;5008307;28;20208;-71
2021/07/14 03:59:05;;;;;;;32.72;20.60;;;19.10;99.90;;;;;;5009184;28;20258;-73
2021/07/14 04:01:33;;;;;;;34.75;21.02;;;19.10;99.90;;;;;;5010220;28;20256;-72
2021/07/14 04:04:00;;;;;;;29.70;18.92;;;19.10;99.90;;;;;;5009700;28;20204;-72
2021/07/14 04:06:31;;;;;;;32.10;19.63;;;19.10;99.90;;;;;;5007677;28;20278;-73
2021/07/14 04:09:23;;;;;;;43.10;22.10;;;19.10;99.90;;;;;;5008533;28;20283;-73
2021/07/14 04:11:53;;;;;;;43.03;24.75;;;19.00;99.90;;;;;;5011765;28;20216;-73
2021/07/14 04:14:20;;;;;;;38.75;25.30;;;19.10;99.90;;;;;;5010469;28;20223;-71
2021/07/14 04:16:47;;;;;;;37.78;24.83;;;19.10;99.90;;;;;;5009588;28;20199;-72
2021/07/14 04:19:13;;;;;;;40.30;24.42;;;19.10;99.90;;;;;;5010892;28;20255;-72
2021/07/14 04:21:40;;;;;;;39.72;22.05;;;19.10;99.90;;;;;;5018446;28;20211;-72
2021/07/14 04:24:09;;;;;;;36.15;20.60;;;19.00;99.90;;;;;;5016796;28;20192;-73
2021/07/14 04:26:36;;;;;;;36.13;21.08;;;19.00;99.90;;;;;;5006410;28;20230;-74
2021/07/14 04:29:04;;;;;;;34.35;20.95;;;19.00;99.90;;;;;;5002674;28;20204;-71
2021/07/14 04:31:31;;;;;;;36.00;21.10;;;19.00;99.90;;;;;;5016761;28;20236;-71
2021/07/14 04:33:58;;;;;;;42.13;21.98;;;19.00;99.90;;;;;;5013936;28;20208;-72
2021/07/14 04:36:25;;;;;;;32.47;21.60;;;19.00;99.90;;;;;;5018052;28;20254;-70
2021/07/14 04:38:52;;;;;;;36.00;21.50;;;19.00;99.90;;;;;;5000637;28;20251;-71
2021/07/14 04:41:21;;;;;;;34.78;20.83;;;19.00;99.90;;;;;;5015357;28;20220;-71
2021/07/14 04:43:47;;;;;;;33.95;21.42;;;19.00;99.90;;;;;;5016623;28;20208;-72
2021/07/14 04:46:14;;;;;;;45.03;23.58;;;19.00;99.90;;;;;;5014715;28;20266;-71
2021/07/14 04:48:41;;;;;;;36.67;22.75;;;19.00;99.90;;;;;;5014257;28;20771;-71
2021/07/14 04:51:08;;;;;;;39.42;22.80;;;19.00;99.90;;;;;;5018840;28;20212;-72
2021/07/14 04:53:35;;;;;;;39.20;23.88;;;19.00;99.90;;;;;;5012075;28;20204;-72
2021/07/14 04:56:02;;;;;;;40.72;23.92;;;19.00;99.90;;;;;;5016502;28;20219;-72
2021/07/14 04:58:30;;;;;;;38.03;24.20;;;19.10;99.90;;;;;;5015338;28;20212;-71
2021/07/14 05:00:57;;;;;;;45.08;26.02;;;19.10;99.90;;;;;;4995625;28;20661;-71
2021/07/14 05:03:24;;;;;;;44.25;26.63;;;19.10;99.90;;;;;;5013401;28;20199;-71
2021/07/14 05:05:52;;;;;;;44.83;28.55;;;19.00;99.90;;;;;;5015339;28;20207;-71
2021/07/14 05:08:19;;;;;;;52.58;28.33;;;19.10;99.90;;;;;;5014038;28;20205;-72
2021/07/14 05:10:48;;;;;;;51.13;28.00;;;19.10;99.90;;;;;;5003853;28;20220;-71
2021/07/14 05:13:16;;;;;;;53.60;28.90;;;19.10;99.90;;;;;;5006534;28;20208;-71
2021/07/14 05:15:45;;;;;;;39.95;25.08;;;19.10;99.90;;;;;;5016449;28;20626;-71
2021/07/14 05:18:13;;;;;;;38.85;22.73;;;19.10;99.90;;;;;;5016572;28;20661;-70
2021/07/14 05:20:40;;;;;;;33.78;21.23;;;19.10;99.90;;;;;;5013807;28;20228;-71
2021/07/14 05:23:07;;;;;;;35.92;23.05;;;19.10;99.90;;;;;;5016336;28;20219;-71
2021/07/14 05:25:35;;;;;;;38.70;22.98;;;19.10;99.90;;;;;;5016598;28;20254;-71
2021/07/14 05:28:02;;;;;;;42.92;25.13;;;19.00;99.90;;;;;;5013081;28;20300;-71
2021/07/14 05:30:29;;;;;;;46.65;27.38;;;19.10;99.90;;;;;;5010121;28;20256;-72
2021/07/14 05:32:57;;;;;;;45.72;26.45;;;19.10;99.90;;;;;;5009034;28;20204;-71
2021/07/14 05:35:24;;;;;;;45.85;25.73;;;19.10;99.90;;;;;;4993936;28;20205;-72
2021/07/14 05:37:51;;;;;;;45.83;25.33;;;19.10;99.90;;;;;;5009184;28;20204;-72
2021/07/14 05:40:18;;;;;;;44.33;25.08;;;19.10;99.90;;;;;;5012311;28;20211;-72
2021/07/14 05:42:45;;;;;;;42.65;24.00;;;19.10;99.90;;;;;;5010036;28;20222;-70
2021/07/14 05:45:12;;;;;;;32.17;20.92;;;19.10;99.90;;;;;;5007716;28;20210;-69
2021/07/14 05:47:39;;;;;;;27.65;18.98;;;19.10;99.90;;;;;;5013449;28;20224;-69
2021/07/14 05:50:09;;;;;;;29.50;19.10;;;19.10;99.90;;;;;;5011812;28;20209;-69
2021/07/14 05:52:36;;;;;;;27.55;18.88;;;19.10;99.90;;;;;;5012620;28;20192;-69
2021/07/14 05:55:04;;;;;;;34.17;19.83;;;19.10;99.90;;;;;;4990372;28;20702;-71
2021/07/14 05:57:31;;;;;;;37.72;21.33;;;19.10;99.90;;;;;;5006975;28;20207;-69
2021/07/14 05:59:58;;;;;;;32.20;20.25;;;19.10;99.90;;;;;;5012096;28;20211;-69
2021/07/14 06:02:25;;;;;;;30.13;19.33;;;19.10;99.90;;;;;;5009912;28;20971;-68
2021/07/14 06:04:51;;;;;;;37.65;21.42;;;19.10;99.90;;;;;;5013554;28;20312;-70
2021/07/14 06:07:20;;;;;;;39.33;20.58;;;19.10;99.90;;;;;;5010948;28;20672;-69
2021/07/14 06:09:46;;;;;;;37.38;20.52;;;19.10;99.90;;;;;;5014239;28;20204;-69
2021/07/14 06:12:13;;;;;;;36.55;20.83;;;19.10;99.90;;;;;;5008069;28;20619;-68
2021/07/14 06:14:40;;;;;;;36.83;21.65;;;19.10;99.90;;;;;;5012385;28;20266;-70
2021/07/14 06:17:07;;;;;;;33.55;21.48;;;19.10;99.90;;;;;;5010738;28;20207;-70
2021/07/14 06:19:34;;;;;;;35.58;22.35;;;19.10;99.90;;;;;;5009713;28;20207;-70
2021/07/14 06:22:01;;;;;;;42.03;23.98;;;19.10;99.90;;;;;;5010092;28;20200;-69
2021/07/14 06:24:30;;;;;;;44.03;25.45;;;19.10;99.90;;;;;;5011726;28;20205;-68
2021/07/14 06:26:57;;;;;;;43.85;26.10;;;19.10;99.90;;;;;;5009487;28;20254;-69
2021/07/14 06:29:24;;;;;;;46.97;25.15;;;19.10;99.90;;;;;;5010130;28;20208;-69
2021/07/14 06:31:51;;;;;;;44.72;24.55;;;19.10;99.90;;;;;;5011014;28;20236;-68
2021/07/14 06:34:18;;;;;;;42.50;24.90;;;19.10;99.90;;;;;;5011205;28;20700;-69
2021/07/14 06:36:45;;;;;;;45.55;22.42;;;19.10;99.90;;;;;;5011784;28;20676;-69
2021/07/14 06:39:12;;;;;;;42.13;22.40;;;19.10;99.90;;;;;;5009873;28;20204;-68
2021/07/14 06:41:40;;;;;;;37.17;23.13;;;19.10;99.90;;;;;;5001007;28;20579;-69
2021/07/14 06:44:07;;;;;;;39.47;23.33;;;19.10;99.90;;;;;;4993253;28;20203;-68
2021/07/14 06:46:34;;;;;;;39.78;23.25;;;19.10;99.90;;;;;;5012394;28;20624;-69
2021/07/14 06:49:01;;;;;;;36.85;23.20;;;19.20;99.90;;;;;;5008569;28;20204;-70
2021/07/14 06:51:28;;;;;;;40.22;23.38;;;19.20;99.90;;;;;;5010001;28;20204;-73
2021/07/14 06:53:55;;;;;;;38.80;23.05;;;19.20;99.90;;;;;;5009218;28;20267;-72
2021/07/14 06:56:22;;;;;;;40.08;22.42;;;19.20;99.90;;;;;;5007417;28;20200;-66
2021/07/14 06:58:51;;;;;;;35.78;21.33;;;19.20;99.90;;;;;;5008978;28;20193;-67
2021/07/14 07:01:18;;;;;;;34.38;20.15;;;19.20;99.90;;;;;;5011485;28;20683;-66
2021/07/14 07:03:46;;;;;;;30.23;18.58;;;19.20;99.90;;;;;;5007537;28;20550;-66
2021/07/14 07:06:13;;;;;;;28.90;19.42;;;19.20;99.90;;;;;;5010490;28;20212;-67
2021/07/14 07:08:40;;;;;;;28.27;18.02;;;19.20;99.90;;;;;;5012508;28;20208;-68
2021/07/14 07:11:07;;;;;;;31.13;19.42;;;19.20;99.90;;;;;;5010225;28;20204;-68
2021/07/14 07:13:34;;;;;;;32.65;18.48;;;19.20;99.90;;;;;;5009708;28;20201;-69
2021/07/14 07:16:03;;;;;;;31.15;18.63;;;19.30;99.90;;;;;;5011506;28;20695;-67
2021/07/14 07:18:30;;;;;;;29.77;17.88;;;19.30;99.90;;;;;;5010496;28;20228;-67
2021/07/14 07:20:57;;;;;;;30.25;18.48;;;19.30;99.90;;;;;;5010026;28;20197;-66
2021/07/14 07:23:24;;;;;;;32.63;19.80;;;19.30;99.90;;;;;;4991973;28;20254;-66
2021/07/14 07:25:53;;;;;;;34.63;18.63;;;19.30;99.90;;;;;;5011798;28;20661;-66
2021/07/14 07:28:22;;;;;;;29.77;17.42;;;19.30;99.90;;;;;;5005363;28;20248;-67
2021/07/14 07:30:49;;;;;;;33.33;19.23;;;19.30;99.90;;;;;;5012383;28;20311;-73
2021/07/14 07:33:17;;;;;;;38.33;19.92;;;19.30;99.90;;;;;;5010767;28;20203;-71
2021/07/14 07:35:44;;;;;;;32.05;20.75;;;19.30;99.90;;;;;;5000246;28;20213;-72
2021/07/14 07:38:11;;;;;;;33.00;20.35;;;19.30;99.90;;;;;;5006115;28;20204;-72
2021/07/14 07:40:39;;;;;;;34.97;22.02;;;19.30;99.90;;;;;;5011995;28;20207;-72
2021/07/14 07:43:06;;;;;;;32.72;18.80;;;19.30;99.90;;;;;;5008458;28;20215;-73
2021/07/14 07:45:33;;;;;;;37.38;20.42;;;19.30;99.90;;;;;;5012614;28;20200;-72
2021/07/14 07:48:00;;;;;;;28.58;17.30;;;19.30;99.90;;;;;;5007499;28;20220;-71
2021/07/14 07:50:28;;;;;;;28.92;18.23;;;19.20;99.90;;;;;;5009466;28;20200;-73
2021/07/14 07:52:55;;;;;;;30.80;18.60;;;19.20;99.90;;;;;;4987920;28;20220;-72
2021/07/14 07:55:22;;;;;;;31.60;17.50;;;19.30;99.90;;;;;;4992456;28;20219;-71
2021/07/14 07:57:49;;;;;;;34.28;18.05;;;19.30;99.90;;;;;;5008415;28;20235;-72
2021/07/14 08:00:19;;;;;;;23.15;14.40;;;19.20;99.90;;;;;;5012021;28;20206;-73
2021/07/14 08:02:46;;;;;;;27.70;15.43;;;19.20;99.90;;;;;;5009613;28;20223;-72
2021/07/14 08:05:13;;;;;;;26.33;15.10;;;19.20;99.90;;;;;;5012585;28;20409;-73
2021/07/14 08:07:43;;;;;;;32.20;17.42;;;19.20;99.90;;;;;;5007835;28;20657;-70
2021/07/14 08:10:11;;;;;;;29.55;18.27;;;19.20;99.90;;;;;;5010765;28;20200;-72
2021/07/14 08:12:39;;;;;;;32.17;15.57;;;19.20;99.90;;;;;;5004967;28;20216;-72
2021/07/14 08:15:07;;;;;;;26.20;15.05;;;19.20;99.90;;;;;;5012763;28;20207;-74
2021/07/14 08:17:34;;;;;;;30.10;15.73;;;19.10;99.90;;;;;;4993553;28;20209;-71
2021/07/14 08:20:01;;;;;;;25.20;15.13;;;19.20;99.90;;;;;;5011763;28;20684;-72
2021/07/14 08:22:28;;;;;;;25.45;14.80;;;19.20;99.90;;;;;;5011660;28;20208;-72
2021/07/14 08:24:56;;;;;;;26.30;15.05;;;19.20;99.90;;;;;;5008817;28;20323;-73
2021/07/14 08:27:24;;;;;;;20.17;11.90;;;19.20;99.90;;;;;;5006971;28;20591;-74
2021/07/14 08:29:51;;;;;;;19.50;11.68;;;19.20;99.90;;;;;;5006855;28;20663;-71
2021/07/14 08:32:18;;;;;;;27.55;13.48;;;19.10;99.90;;;;;;5007933;28;20272;-72
2021/07/14 08:34:45;;;;;;;26.33;14.75;;;19.20;99.90;;;;;;5012870;28;20208;-72
2021/07/14 08:37:12;;;;;;;26.13;15.93;;;19.20;99.90;;;;;;5008670;28;20371;-72
2021/07/14 08:39:39;;;;;;;26.50;16.25;;;19.10;99.90;;;;;;5010869;28;20211;-72
2021/07/14 08:42:08;;;;;;;26.98;16.92;;;19.20;99.90;;;;;;4996856;28;20250;-71
2021/07/14 08:44:35;;;;;;;34.55;17.50;;;19.20;99.90;;;;;;5007945;28;20228;-74
2021/07/14 08:47:03;;;;;;;28.50;17.10;;;19.20;99.90;;;;;;5006710;28;20205;-72
2021/07/14 08:49:30;;;;;;;27.20;17.35;;;19.20;99.90;;;;;;5011747;28;20205;-71
2021/07/14 08:51:57;;;;;;;34.70;17.77;;;19.20;99.90;;;;;;5008496;28;20652;-72
2021/07/14 08:54:24;;;;;;;31.52;16.52;;;19.20;99.90;;;;;;5008157;28;20610;-74
2021/07/14 08:56:51;;;;;;;25.83;16.95;;;19.20;99.90;;;;;;4993615;28;20295;-73
2021/07/14 08:59:20;;;;;;;33.65;17.83;;;19.20;99.90;;;;;;5006088;28;20204;-72
2021/07/14 09:01:48;;;;;;;30.50;17.85;;;19.20;99.90;;;;;;5005969;28;20624;-74
2021/07/14 09:04:15;;;;;;;32.00;15.32;;;19.20;99.90;;;;;;4989773;28;20204;-73
2021/07/14 09:06:42;;;;;;;26.80;14.95;;;19.20;99.90;;;;;;5016070;28;20270;-70
2021/07/14 09:09:09;;;;;;;26.08;13.95;;;19.30;99.90;;;;;;5014056;28;20232;-72
2021/07/14 09:11:51;;;;;;;22.85;13.20;;;19.30;99.90;;;;;;5012966;28;20267;-72
2021/07/14 09:14:30;;;;;;;28.08;15.60;;;19.30;99.90;;;;;;5012530;28;20303;-72
2021/07/14 09:16:58;;;;;;;25.08;14.65;;;19.30;99.90;;;;;;4996602;28;20208;-74
2021/07/14 09:19:26;;;;;;;24.10;14.90;;;19.40;99.90;;;;;;5013239;28;20216;-73
2021/07/14 09:21:54;;;;;;;20.45;13.07;;;19.40;99.90;;;;;;5013515;28;20615;-74
2021/07/14 09:24:24;;;;;;;17.48;11.95;;;19.40;99.90;;;;;;5006382;28;20209;-72
2021/07/14 09:26:54;;;;;;;21.52;11.90;;;19.50;99.90;;;;;;5011743;28;20905;-73
2021/07/14 09:29:21;;;;;;;18.17;11.57;;;19.50;99.90;;;;;;5014102;28;20681;-74
2021/07/14 09:31:51;;;;;;;19.50;11.30;;;19.60;99.90;;;;;;5013527;28;20796;-73
2021/07/14 09:34:29;;;;;;;18.73;11.00;;;19.70;99.90;;;;;;5011958;28;20200;-73
2021/07/14 09:36:58;;;;;;;18.40;12.73;;;19.80;99.90;;;;;;5011454;28;20204;-73
2021/07/14 09:39:39;;;;;;;16.13;11.48;;;19.80;99.90;;;;;;5001952;28;20221;-73
2021/07/14 09:42:09;;;;;;;21.75;13.23;;;19.90;99.90;;;;;;5008105;28;20307;-70
2021/07/14 09:44:43;;;;;;;28.08;12.90;;;20.00;99.90;;;;;;5015052;28;20562;-71
2021/07/14 09:47:14;;;;;;;22.23;13.20;;;20.10;99.90;;;;;;5012112;28;20212;-74
2021/07/14 09:49:41;;;;;;;21.98;13.40;;;20.10;99.90;;;;;;5012584;28;20201;-72
2021/07/14 09:52:10;;;;;;;26.10;14.40;;;20.20;99.90;;;;;;5010792;28;20201;-71
2021/07/14 09:54:38;;;;;;;21.98;14.23;;;20.20;99.90;;;;;;5009408;28;20200;-73
2021/07/14 09:57:10;;;;;;;24.38;14.15;;;20.20;99.90;;;;;;5012265;28;20601;-72
2021/07/14 09:59:37;;;;;;;19.33;14.10;;;20.30;99.90;;;;;;4992324;28;20217;-71
2021/07/14 10:02:08;;;;;;;21.50;14.75;;;20.30;99.90;;;;;;4991095;28;20208;-71
2021/07/14 10:04:37;;;;;;;21.33;13.82;;;20.30;99.90;;;;;;5012699;28;20200;-72
2021/07/14 10:07:05;;;;;;;22.02;13.45;;;20.30;99.90;;;;;;5008634;28;20628;-72
2021/07/14 10:09:32;;;;;;;18.30;12.45;;;20.40;99.90;;;;;;5011716;28;20753;-74
2021/07/14 10:12:29;;;;;;;17.15;13.38;;;20.40;99.90;;;;;;5010282;28;20201;-73
2021/07/14 10:14:57;;;;;;;18.83;13.57;;;20.40;99.90;;;;;;5009817;28;20212;-73
2021/07/14 10:17:37;;;;;;;18.88;12.57;;;20.40;99.90;;;;;;5013500;28;20299;-72
2021/07/14 10:20:30;;;;;;;20.25;13.77;;;20.40;99.90;;;;;;5002059;28;20262;-74
2021/07/14 10:22:59;;;;;;;18.58;11.82;;;20.30;99.90;;;;;;5002260;28;20299;-72
2021/07/14 10:25:27;;;;;;;18.50;11.00;;;20.30;99.90;;;;;;5014979;28;20597;-73
2021/07/14 10:27:55;;;;;;;16.02;10.70;;;20.30;99.90;;;;;;5012812;28;20223;-72
2021/07/14 10:30:23;;;;;;;16.27;11.10;;;20.30;99.90;;;;;;4993452;28;20204;-73
2021/07/14 10:32:51;;;;;;;17.98;10.95;;;20.40;99.90;;;;;;5010101;28;20229;-73
2021/07/14 10:35:20;;;;;;;16.83;11.15;;;20.40;99.90;;;;;;5017388;28;20542;-72
2021/07/14 10:37:52;;;;;;;18.02;11.82;;;20.40;99.90;;;;;;4998716;28;20208;-72
2021/07/14 10:40:21;;;;;;;16.52;11.77;;;20.30;99.90;;;;;;5017680;28;20262;-73
2021/07/14 10:42:49;;;;;;;18.27;12.45;;;20.40;99.90;;;;;;5011066;28;20271;-73
2021/07/14 10:45:17;;;;;;;18.92;13.07;;;20.40;99.90;;;;;;5010267;28;20740;-75
2021/07/14 10:47:46;;;;;;;21.00;12.07;;;20.40;99.90;;;;;;5004619;28;20208;-74
2021/07/14 10:50:14;;;;;;;20.10;12.38;;;20.40;99.90;;;;;;5010843;28;20279;-71
2021/07/14 10:52:40;;;;;;;17.20;10.55;;;20.40;99.90;;;;;;5014750;28;20606;-72
2021/07/14 10:55:11;;;;;;;17.55;11.52;;;20.40;99.90;;;;;;5014960;28;20707;-73
2021/07/14 10:57:39;;;;;;;20.25;12.00;;;20.40;99.90;;;;;;5010532;28;20212;-73
2021/07/14 11:00:08;;;;;;;24.58;14.95;;;20.40;99.90;;;;;;4999242;28;20212;-74
2021/07/14 11:02:40;;;;;;;26.10;15.57;;;20.40;99.90;;;;;;4998219;28;20219;-73
2021/07/14 11:05:08;;;;;;;24.25;15.68;;;20.40;99.90;;;;;;5009871;28;20291;-74
2021/07/14 11:07:37;;;;;;;23.58;14.27;;;20.40;99.90;;;;;;5011354;28;20251;-72
2021/07/14 11:10:26;;;;;;;21.10;13.27;;;20.40;99.90;;;;;;5008656;28;20208;-73
2021/07/14 11:12:53;;;;;;;24.92;14.93;;;20.30;99.90;;;;;;5002088;28;20216;-72
2021/07/14 11:15:37;;;;;;;29.60;16.75;;;20.30;99.90;;;;;;5010124;28;20208;-72
2021/07/14 11:18:36;;;;;;;29.77;16.63;;;20.30;99.90;;;;;;5008784;28;20246;-73
2021/07/14 11:21:03;;;;;;;27.98;17.20;;;20.30;99.90;;;;;;5000153;28;20205;-72
2021/07/14 11:23:30;;;;;;;29.52;17.10;;;20.30;99.90;;;;;;5009980;28;20211;-72
2021/07/14 11:25:59;;;;;;;24.35;15.45;;;20.40;99.90;;;;;;5012524;28;20204;-74
2021/07/14 11:28:28;;;;;;;25.77;14.73;;;20.40;99.90;;;;;;5006104;28;20225;-73
2021/07/14 11:30:56;;;;;;;27.98;16.20;;;20.40;99.90;;;;;;5014004;28;20228;-73
2021/07/14 11:33:29;;;;;;;30.45;18.13;;;20.40;99.90;;;;;;5006860;28;20262;-73
2021/07/14 11:36:02;;;;;;;25.85;16.40;;;20.40;99.90;;;;;;5013276;28;20215;-73
2021/07/14 11:38:33;;;;;;;29.65;17.77;;;20.40;99.90;;;;;;4989345;28;20224;-74
2021/07/14 11:41:03;;;;;;;33.75;19.05;;;20.40;99.90;;;;;;5012825;28;20211;-73
2021/07/14 11:43:43;;;;;;;32.22;18.52;;;20.50;99.90;;;;;;5008067;28;20204;-73
2021/07/14 11:46:14;;;;;;;29.65;17.55;;;20.50;99.90;;;;;;5011386;28;20204;-74
2021/07/14 11:48:43;;;;;;;32.97;17.83;;;20.50;99.90;;;;;;5008816;28;20903;-73
2021/07/14 11:51:22;;;;;;;30.85;18.45;;;20.50;99.90;;;;;;5010396;28;20270;-73
2021/07/14 11:53:49;;;;;;;31.08;17.00;;;20.40;99.90;;;;;;5006433;28;20665;-71
2021/07/14 11:56:21;;;;;;;27.27;16.02;;;20.50;99.90;;;;;;5012132;28;20213;-72
2021/07/14 11:59:04;;;;;;;30.33;15.80;;;20.50;99.90;;;;;;5008354;28;20259;-73
2021/07/14 12:02:03;;;;;;;29.70;18.58;;;20.40;99.90;;;;;;5008159;28;20217;-72
2021/07/14 12:04:35;;;;;;;35.67;21.63;;;20.40;99.90;;;;;;5008576;28;20204;-72
2021/07/14 12:07:11;;;;;;;36.20;19.25;;;20.40;99.90;;;;;;5004652;28;20216;-74
2021/07/14 12:09:46;;;;;;;30.77;18.23;;;20.40;99.90;;;;;;5007365;28;20303;-71
2021/07/14 12:12:23;;;;;;;33.00;19.42;;;20.50;99.90;;;;;;5007815;28;20216;-73
2021/07/14 12:14:51;;;;;;;31.33;18.58;;;20.50;99.90;;;;;;5011488;28;20192;-72
2021/07/14 12:17:20;;;;;;;31.58;19.27;;;20.50;99.90;;;;;;5008140;28;20192;-73
2021/07/14 12:19:49;;;;;;;38.83;19.98;;;20.50;99.90;;;;;;5012301;28;20826;-72
2021/07/14 12:22:18;;;;;;;34.05;19.85;;;20.60;99.90;;;;;;5008396;28;20232;-74
2021/07/14 12:24:47;;;;;;;30.52;18.58;;;20.60;99.90;;;;;;5007279;28;20212;-72
2021/07/14 12:27:22;;;;;;;25.20;16.45;;;20.60;99.90;;;;;;5009210;28;20556;-73
2021/07/14 12:29:54;;;;;;;28.20;15.10;;;20.60;99.90;;;;;;5010675;28;20219;-72
2021/07/14 12:32:39;;;;;;;29.13;16.95;;;20.60;99.90;;;;;;5008402;28;20232;-73
2021/07/14 12:35:12;;;;;;;30.95;17.73;;;20.60;99.90;;;;;;5009627;28;20663;-71
2021/07/14 12:37:46;;;;;;;35.72;18.13;;;20.70;99.90;;;;;;5008911;28;20197;-72
2021/07/14 12:40:25;;;;;;;29.85;18.45;;;20.70;99.90;;;;;;5014275;28;20231;-75
2021/07/14 12:42:54;;;;;;;32.33;18.90;;;20.70;99.90;;;;;;5013359;28;20291;-73
2021/07/14 12:45:27;;;;;;;29.48;18.75;;;20.70;99.90;;;;;;5015352;28;20208;-72